KCDS

Childress Municipal Airport

Childress, Texas, USA
METAR KCDS 211253Z AUTO 03015G22KT 10SM BKN060 OVC100 M04/M14 A3037 RMK AO2 SLP300 T10441139
Observed Flight Rules
Feb-21 @ 12:53 UTC (27 minutes ago) Visual Flight Rules
Wind Visibility Clouds
30° at 15 knots
 Gusting to 22 knots
10 miles
  • Broken at 6,000' AGL
  • Overcast at 10,000' AGL
Temperatures Readings
Current -4°C / 25°F
Dewpoint -14°C / 7°F
Humidity 46%
Altimeter 30.37" Hg
Pressure 1030 hPa
Elevation 594
METAR KCDS 211253Z AUTO 03015G22KT 10SM BKN060 OVC100 M04/M14 A3037 RMK AO2 SLP300 T10441139
Observed Flight Rules
Feb-21 @ 12:53 UTC
(27 minutes ago)
VFR
Wind Visibility
30° at 15 knots
 Gusting to 22 knots
10 miles
Clouds
  • Broken at 6,000' AGL
  • Overcast at 10,000' AGL
Temperature Dewpoint
-4°C / 25°F -14°C / 7°F
Humidity Altimeter Pressure
46% 30.37" Hg 1030 hPa